Time;durP1;ratioP1;P1;durP2;ratioP2;P2;SDS_P1;SDS_P2;PMS_P1;PMS_P2;Temp;Humidity;BMP_temperature;BMP_pressure;BME280_temperature;BME280_humidity;BME280_pressure;Samples;Min_cycle;Max_cycle;Signal;HPM_P1;HPM_P2
2022/11/07 00:02:06;;;;;;;5.35;2.58;;;;;;;7.05;57.78;100366.31;5029765;28;20091;-75
2022/11/07 00:04:32;;;;;;;5.43;2.58;;;;;;;6.88;58.39;100352.13;5019194;28;20033;-75
2022/11/07 00:06:58;;;;;;;4.25;2.38;;;;;;;6.97;57.78;100353.56;5020481;28;20490;-78
2022/11/07 00:09:23;;;;;;;8.02;3.03;;;;;;;7.20;57.21;100342.41;5029336;28;20061;-79
2022/11/07 00:11:49;;;;;;;5.35;2.72;;;;;;;6.98;58.04;100359.66;5019227;28;20037;-74
2022/11/07 00:14:16;;;;;;;3.70;2.35;;;;;;;7.39;56.83;100359.97;5030816;28;20054;-73
2022/11/07 00:16:42;;;;;;;3.40;2.20;;;;;;;6.71;58.98;100357.03;5013923;28;20043;-74
2022/11/07 00:19:08;;;;;;;3.47;2.17;;;;;;;7.70;56.31;100355.41;5031251;28;20390;-74
2022/11/07 00:21:34;;;;;;;3.53;2.70;;;;;;;7.64;56.46;100352.19;5029941;28;20037;-74
2022/11/07 00:23:59;;;;;;;3.38;2.25;;;;;;;7.10;57.73;100365.25;5022217;28;20385;-76
2022/11/07 00:26:25;;;;;;;3.50;2.55;;;;;;;6.94;58.31;100363.25;5014043;28;20029;-76
2022/11/07 00:28:50;;;;;;;4.70;3.67;;;;;;;7.08;58.19;100372.25;5015751;28;20037;-77
2022/11/07 00:31:17;;;;;;;7.20;2.78;;;;;;;7.35;57.40;100361.81;5032995;28;20041;-77
2022/11/07 00:33:43;;;;;;;7.07;2.55;;;;;;;7.16;58.48;100382.41;5013853;28;20098;-76
2022/11/07 00:36:16;;;;;;;5.28;2.55;;;;;;;7.13;58.25;100379.91;5018619;28;20032;-76
2022/11/07 00:38:41;;;;;;;5.10;2.58;;;;;;;6.82;58.93;100380.94;5015088;28;20390;-74
2022/11/07 00:41:08;;;;;;;5.20;2.55;;;;;;;7.10;57.96;100372.22;5029276;28;20090;-72
2022/11/07 00:43:33;;;;;;;2.83;2.53;;;;;;;7.48;57.39;100377.84;5028856;28;20141;-75
2022/11/07 00:46:01;;;;;;;6.60;2.83;;;;;;;7.31;57.73;100386.22;5020982;28;20552;-73
2022/11/07 00:48:27;;;;;;;3.67;2.25;;;;;;;7.48;57.57;100380.44;5026667;28;20138;-72
2022/11/07 00:50:52;;;;;;;7.75;2.55;;;;;;;7.82;56.56;100379.28;5029347;28;20115;-72
2022/11/07 00:53:18;;;;;;;4.28;2.63;;;;;;;7.98;55.94;100385.63;5028822;28;20418;-71
2022/11/07 00:55:44;;;;;;;6.93;2.30;;;;;;;7.84;56.49;100387.88;5027255;28;20203;-70
2022/11/07 00:58:09;;;;;;;5.68;2.13;;;;;;;7.61;56.70;100384.34;5028971;28;20131;-74
2022/11/07 01:00:36;;;;;;;6.20;2.72;;;;;;;7.27;58.32;100387.25;5027050;28;20021;-72
2022/11/07 01:05:59;;;;;;;3.10;2.88;;;;;;;7.46;57.44;100377.91;5027791;28;20063;-71
2022/11/07 01:08:26;;;;;;;5.78;2.45;;;;;;;7.37;58.05;100387.78;5020313;28;20049;-72
2022/11/07 01:10:52;;;;;;;6.18;2.65;;;;;;;7.74;57.17;100387.38;5026483;28;20160;-72
2022/11/07 01:13:17;;;;;;;6.22;3.13;;;;;;;7.29;58.33;100381.09;5026662;28;20135;-72
2022/11/07 01:15:43;;;;;;;4.82;1.95;;;;;;;7.61;57.40;100381.75;5026187;28;20044;-71
2022/11/07 01:18:09;;;;;;;6.60;1.95;;;;;;;7.91;56.76;100377.22;5029261;28;20148;-71
2022/11/07 01:20:35;;;;;;;3.72;2.08;;;;;;;7.85;56.83;100379.19;5026386;28;20478;-71
2022/11/07 01:23:00;;;;;;;3.67;2.08;;;;;;;7.67;57.10;100384.16;5026275;28;20358;-71
2022/11/07 01:25:25;;;;;;;7.63;2.35;;;;;;;7.30;58.34;100381.94;5027702;28;20044;-72
2022/11/07 01:27:51;;;;;;;5.07;2.25;;;;;;;7.21;58.11;100395.25;5026938;28;20090;-71
2022/11/07 01:30:16;;;;;;;7.78;2.97;;;;;;;7.77;56.91;100391.63;5027669;28;20037;-71
2022/11/07 01:32:42;;;;;;;4.47;1.70;;;;;;;7.45;57.67;100396.16;5028716;28;20042;-71
2022/11/07 01:35:07;;;;;;;3.42;2.65;;;;;;;7.90;56.55;100390.25;5028504;28;20037;-71
2022/11/07 01:37:33;;;;;;;10.48;2.95;;;;;;;7.95;56.53;100401.34;5009685;28;20057;-72
2022/11/07 01:39:58;;;;;;;4.97;3.00;;;;;;;7.20;58.28;100396.13;5027694;28;20141;-76
2022/11/07 01:42:24;;;;;;;4.25;2.42;;;;;;;7.60;57.20;100395.69;5013204;28;20041;-76
2022/11/07 01:44:57;;;;;;;5.10;1.95;;;;;;;8.01;56.46;100395.94;5028428;28;20021;-77
2022/11/07 01:47:28;;;;;;;5.97;2.35;;;;;;;8.14;56.43;100396.31;5029840;28;20065;-75
2022/11/07 01:49:54;;;;;;;7.43;2.75;;;;;;;7.84;57.03;100387.88;5015501;28;20100;-73
2022/11/07 01:52:24;;;;;;;4.53;2.80;;;;;;;7.25;58.46;100392.50;5027803;28;20319;-73
2022/11/07 01:55:00;;;;;;;7.35;2.20;;;;;;;7.38;58.34;100389.47;5028877;28;20476;-72
2022/11/07 01:57:34;;;;;;;6.53;2.50;;;;;;;7.93;56.93;100397.94;5025727;28;20056;-73
2022/11/07 02:00:02;;;;;;;8.98;1.77;;;;;;;8.09;56.17;100401.72;5028742;28;20029;-74
2022/11/07 02:02:31;;;;;;;9.13;2.38;;;;;;;7.70;57.52;100404.84;5030213;28;20057;-74
2022/11/07 02:05:00;;;;;;;8.18;1.85;;;;;;;7.90;57.20;100409.31;5011420;28;20478;-76
2022/11/07 02:07:25;;;;;;;6.18;2.10;;;;;;;7.72;57.73;100400.44;5028467;28;20060;-69
2022/11/07 02:09:52;;;;;;;4.80;1.83;;;;;;;7.58;58.00;100413.09;5025787;28;20040;-70
2022/11/07 02:12:18;;;;;;;5.28;2.10;;;;;;;7.85;56.90;100402.59;5028777;28;20313;-71
2022/11/07 02:14:44;;;;;;;4.40;2.40;;;;;;;7.32;58.25;100398.34;5008278;28;20041;-70
2022/11/07 02:17:11;;;;;;;5.35;1.85;;;;;;;7.50;58.13;100409.84;5027061;28;20037;-72
2022/11/07 02:19:43;;;;;;;6.80;3.13;;;;;;;7.19;59.37;100410.88;5025346;28;20115;-72
2022/11/07 02:22:35;;;;;;;5.25;1.95;;;;;;;7.31;58.60;100407.88;5015486;28;20032;-72
2022/11/07 02:25:05;;;;;;;6.20;2.22;;;;;;;7.92;57.21;100412.72;5027201;28;20036;-77
2022/11/07 02:27:31;;;;;;;10.18;2.25;;;;;;;7.81;57.32;100408.81;5028307;28;20067;-77
2022/11/07 02:30:01;;;;;;;7.15;2.35;;;;;;;7.88;57.21;100405.94;5014358;28;20033;-77
2022/11/07 02:32:26;;;;;;;8.02;2.25;;;;;;;7.48;58.56;100422.91;5027489;28;20517;-78
2022/11/07 02:35:01;;;;;;;5.30;1.83;;;;;;;7.62;57.76;100413.81;5012423;28;20037;-71
2022/11/07 02:37:31;;;;;;;5.18;1.80;;;;;;;7.98;56.81;100413.41;5028419;28;20056;-73
2022/11/07 02:39:58;;;;;;;5.75;1.58;;;;;;;7.01;59.47;100417.53;5027580;28;20052;-79
2022/11/07 02:42:25;;;;;;;6.75;1.80;;;;;;;7.93;57.01;100423.97;5021903;28;20084;-74
2022/11/07 02:44:54;;;;;;;9.55;2.25;;;;;;;7.02;59.08;100406.25;5017997;28;20029;-77
2022/11/07 02:47:20;;;;;;;3.25;1.45;;;;;;;7.61;57.77;100412.13;5027130;28;20491;-81
2022/11/07 02:49:45;;;;;;;10.50;2.17;;;;;;;8.12;56.52;100417.19;5021622;28;20041;-83
2022/11/07 02:52:10;;;;;;;10.52;1.52;;;;;;;8.52;55.32;100413.09;5023501;28;20040;-83
2022/11/07 02:54:36;;;;;;;10.13;1.42;;;;;;;8.26;56.03;100421.03;5020665;28;20029;-82
2022/11/07 02:57:01;;;;;;;8.75;1.33;;;;;;;8.02;56.71;100418.44;5026823;28;20092;-83
2022/11/07 02:59:27;;;;;;;8.52;1.80;;;;;;;7.97;56.71;100425.56;5036538;28;20282;-82
2022/11/07 03:01:52;;;;;;;7.65;1.58;;;;;;;8.11;56.53;100422.44;5037220;28;20045;-81
2022/11/07 03:04:18;;;;;;;6.07;2.22;;;;;;;7.97;56.89;100422.97;5020052;28;20037;-81
2022/11/07 03:06:43;;;;;;;5.50;1.52;;;;;;;8.18;56.49;100423.06;5027170;28;20056;-82
2022/11/07 03:09:09;;;;;;;10.88;2.13;;;;;;;8.30;56.03;100438.25;5022821;28;20513;-80
2022/11/07 03:11:34;;;;;;;5.55;1.60;;;;;;;7.79;57.25;100415.81;5022546;28;20045;-81
2022/11/07 03:14:00;;;;;;;5.30;2.50;;;;;;;7.79;57.77;100419.28;5021359;28;20041;-83
2022/11/07 03:16:25;;;;;;;11.40;1.95;;;;;;;8.54;55.49;100431.28;5022160;28;20041;-82
2022/11/07 03:18:50;;;;;;;4.43;1.60;;;;;;;8.05;56.88;100428.75;5017021;28;20346;-81
2022/11/07 03:21:16;;;;;;;6.60;1.77;;;;;;;8.12;56.44;100429.38;5006920;28;20743;-81
2022/11/07 03:23:41;;;;;;;9.70;1.85;;;;;;;7.25;59.03;100431.47;5017813;28;20493;-69
2022/11/07 03:26:07;;;;;;;7.38;1.98;;;;;;;7.77;57.83;100428.88;5027286;28;20116;-81
2022/11/07 03:28:32;;;;;;;4.18;1.40;;;;;;;8.20;56.37;100423.88;5025659;28;20133;-78
2022/11/07 03:30:59;;;;;;;8.43;1.60;;;;;;;7.98;57.07;100432.47;5023458;28;20071;-77
2022/11/07 03:33:26;;;;;;;7.80;1.88;;;;;;;7.77;57.78;100428.88;5031307;28;20033;-77
2022/11/07 03:35:52;;;;;;;7.53;1.67;;;;;;;8.16;56.57;100430.97;5025392;28;20127;-76
2022/11/07 03:38:17;;;;;;;7.28;1.70;;;;;;;7.82;57.07;100431.31;5013694;28;20103;-76
2022/11/07 03:40:44;;;;;;;6.20;1.38;;;;;;;8.18;56.57;100433.50;5027101;28;20037;-76
2022/11/07 03:43:10;;;;;;;8.60;1.98;;;;;;;7.78;57.64;100442.72;5028133;28;20033;-76
2022/11/07 03:45:35;;;;;;;9.05;2.05;;;;;;;7.99;56.95;100446.34;5026750;28;20482;-77
2022/11/07 03:48:01;;;;;;;6.05;1.58;;;;;;;7.75;57.75;100446.28;5028310;28;20061;-75
2022/11/07 03:50:26;;;;;;;3.95;1.55;;;;;;;8.14;56.61;100454.44;4999255;28;20744;-75
2022/11/07 03:52:52;;;;;;;5.00;1.33;;;;;;;8.07;56.52;100449.50;5027201;28;20036;-77
2022/11/07 03:55:17;;;;;;;2.85;0.80;;;;;;;7.82;57.41;100455.56;5022613;28;20045;-72
2022/11/07 03:57:44;;;;;;;6.80;2.40;;;;;;;7.30;58.58;100460.78;5013553;28;20116;-72
2022/11/07 04:00:10;;;;;;;5.35;1.38;;;;;;;7.86;57.55;100458.94;5025993;28;20202;-73
2022/11/07 04:02:39;;;;;;;9.48;2.38;;;;;;;7.47;59.17;100469.78;5019502;28;20037;-78
2022/11/07 04:05:05;;;;;;;3.15;1.08;;;;;;;8.07;57.15;100462.50;5027371;28;20041;-78
2022/11/07 04:07:30;;;;;;;6.28;2.13;;;;;;;7.53;58.21;100456.53;5008188;28;20027;-77
2022/11/07 04:09:56;;;;;;;10.02;2.08;;;;;;;7.35;59.26;100463.22;5009240;28;20049;-73
2022/11/07 04:17:56;;;;;;;8.25;1.95;;;;;;;8.09;57.09;100485.00;5024783;28;20029;-71
2022/11/07 04:20:22;;;;;;;6.20;1.50;;;;;;;7.31;59.41;100485.88;5023371;28;20057;-69
2022/11/07 04:22:47;;;;;;;6.13;1.70;;;;;;;7.90;58.18;100486.53;5022855;28;20033;-70
2022/11/07 04:25:13;;;;;;;14.05;1.80;;;;;;;7.87;57.71;100497.91;5024916;28;20045;-70
2022/11/07 04:27:41;;;;;;;7.97;1.70;;;;;;;7.90;57.37;100502.16;5021527;28;20034;-70
2022/11/07 04:30:18;;;;;;;8.35;1.63;;;;;;;7.39;59.95;100505.56;5017012;28;20571;-69
2022/11/07 04:32:45;;;;;;;5.50;1.60;;;;;;;8.11;57.56;100535.25;5004587;28;20044;-71
2022/11/07 04:35:10;;;;;;;5.80;1.55;;;;;;;7.69;59.30;100530.63;5012300;28;20422;-71
2022/11/07 04:37:36;;;;;;;7.43;2.17;;;;;;;7.49;59.91;100533.84;5022756;28;20619;-74
2022/11/07 04:40:01;;;;;;;7.03;1.88;;;;;;;7.09;62.14;100539.44;5020073;28;20029;-76
2022/11/07 04:42:27;;;;;;;5.40;2.42;;;;;;;7.45;61.21;100513.19;5013586;28;20403;-77
2022/11/07 04:44:52;;;;;;;4.47;2.67;;;;;;;7.46;61.25;100517.47;5013528;28;20053;-77
2022/11/07 04:47:17;;;;;;;7.57;3.28;;;;;;;7.47;61.57;100514.84;5015512;28;20037;-77
2022/11/07 04:49:43;;;;;;;7.93;2.95;;;;;;;7.68;61.22;100523.69;5033640;28;20045;-77
2022/11/07 04:52:09;;;;;;;9.40;2.65;;;;;;;7.55;61.18;100512.00;5018959;28;20040;-77
2022/11/07 04:54:34;;;;;;;7.85;2.38;;;;;;;7.63;60.75;100520.41;5028739;28;20045;-76
2022/11/07 04:57:00;;;;;;;8.05;2.75;;;;;;;7.53;61.40;100521.56;5034907;28;20038;-72
2022/11/07 04:59:25;;;;;;;10.90;2.47;;;;;;;7.58;61.05;100522.31;5029860;28;20048;-71
2022/11/07 05:01:50;;;;;;;8.48;2.50;;;;;;;7.45;62.02;100521.84;5028826;28;20041;-71
2022/11/07 05:04:16;;;;;;;11.65;2.78;;;;;;;7.35;62.17;100519.56;5029162;28;21020;-73
2022/11/07 05:06:42;;;;;;;6.75;2.40;;;;;;;8.02;60.22;100513.88;5015891;28;20064;-75
2022/11/07 05:09:08;;;;;;;6.70;2.83;;;;;;;7.69;60.39;100530.63;5014599;28;20413;-74
2022/11/07 05:11:33;;;;;;;5.40;2.63;;;;;;;7.37;62.02;100516.00;5016515;28;20034;-75
2022/11/07 05:13:59;;;;;;;8.45;2.78;;;;;;;7.66;60.94;100525.50;5018625;28;20048;-74
2022/11/07 05:16:25;;;;;;;6.85;2.30;;;;;;;7.50;61.73;100519.06;5015210;28;20563;-73
2022/11/07 05:18:50;;;;;;;6.28;3.00;;;;;;;7.39;61.82;100531.56;5025442;28;20399;-72
2022/11/07 05:21:15;;;;;;;8.00;3.58;;;;;;;7.58;61.09;100532.72;5030001;28;20044;-71
2022/11/07 05:23:41;;;;;;;6.07;3.28;;;;;;;7.83;60.43;100521.50;5024865;28;20037;-70
2022/11/07 05:26:06;;;;;;;17.30;3.42;;;;;;;7.51;61.32;100521.63;5025915;28;20091;-70
2022/11/07 05:28:32;;;;;;;11.52;2.88;;;;;;;7.39;61.75;100518.56;5026616;28;20068;-70
2022/11/07 05:31:00;;;;;;;10.43;2.67;;;;;;;7.52;61.55;100512.06;5029438;28;20123;-72
2022/11/07 05:33:26;;;;;;;8.40;2.47;;;;;;;7.43;61.59;100515.81;5024919;28;20056;-71
2022/11/07 05:35:51;;;;;;;11.00;3.05;;;;;;;7.56;60.88;100513.72;5026122;28;20102;-73
2022/11/07 05:38:17;;;;;;;4.50;2.00;;;;;;;7.23;61.78;100526.03;5009048;28;20076;-72
2022/11/07 05:40:43;;;;;;;5.57;2.10;;;;;;;7.46;61.01;100525.28;5013548;28;20589;-78
2022/11/07 05:43:11;;;;;;;5.65;3.20;;;;;;;7.09;61.57;100522.09;5023196;28;20673;-82
2022/11/07 05:45:39;;;;;;;5.05;2.45;;;;;;;7.45;60.71;100527.03;5033338;28;20032;-80
2022/11/07 05:48:08;;;;;;;7.85;2.90;;;;;;;7.19;61.76;100538.25;5023351;28;20029;-78
2022/11/07 05:50:34;;;;;;;9.35;2.72;;;;;;;7.46;60.77;100543.47;5029052;28;20052;-78
2022/11/07 05:53:00;;;;;;;7.93;2.60;;;;;;;7.76;59.44;100546.88;5022620;28;20042;-78
2022/11/07 05:55:27;;;;;;;7.25;2.58;;;;;;;7.42;60.66;100557.47;5028669;28;20456;-78
2022/11/07 05:57:53;;;;;;;6.28;2.20;;;;;;;7.62;59.95;100543.84;5016835;28;20652;-76
2022/11/07 06:00:19;;;;;;;6.95;2.47;;;;;;;7.39;60.46;100558.41;5031306;28;20072;-76
2022/11/07 06:03:04;;;;;;;11.60;2.03;;;;;;;7.54;60.39;100551.88;5021962;28;20057;-78
2022/11/07 06:05:31;;;;;;;5.47;2.28;;;;;;;7.27;61.04;100553.63;5018482;28;20120;-77
2022/11/07 06:07:56;;;;;;;17.75;4.15;;;;;;;7.41;60.52;100561.81;5018714;28;20071;-76
2022/11/07 06:10:23;;;;;;;15.45;2.47;;;;;;;7.64;59.52;100539.47;5016289;28;20094;-83
2022/11/07 06:13:00;;;;;;;9.30;2.00;;;;;;;7.48;60.54;100559.88;5032280;28;20029;-77
2022/11/07 06:15:28;;;;;;;10.10;2.22;;;;;;;7.57;60.10;100559.63;5017149;28;20028;-76
2022/11/07 06:17:53;;;;;;;8.73;2.42;;;;;;;7.16;61.54;100551.34;5030146;28;20052;-78
2022/11/07 06:20:19;;;;;;;3.83;1.98;;;;;;;7.22;61.79;100551.16;5015419;28;20073;-78
2022/11/07 06:22:45;;;;;;;10.55;3.28;;;;;;;7.67;60.44;100552.38;5030063;28;20021;-76
2022/11/07 06:25:11;;;;;;;9.30;2.80;;;;;;;7.53;60.65;100550.16;5028858;28;20048;-75
2022/11/07 06:27:36;;;;;;;8.45;2.70;;;;;;;7.52;60.88;100564.09;5014238;28;20138;-77
2022/11/07 06:30:02;;;;;;;10.68;3.85;;;;;;;7.40;60.99;100551.47;5030448;28;20029;-79
2022/11/07 06:32:28;;;;;;;7.72;2.72;;;;;;;7.09;62.08;100560.25;5025986;28;20418;-72
2022/11/07 06:34:53;;;;;;;11.75;2.10;;;;;;;7.50;60.24;100566.72;5026082;28;20048;-75
2022/11/07 06:37:19;;;;;;;15.65;2.28;;;;;;;7.52;61.07;100569.28;5028461;28;20042;-77
2022/11/07 06:39:44;;;;;;;7.82;3.60;;;;;;;7.21;61.96;100557.25;5026942;28;20139;-78
2022/11/07 06:42:10;;;;;;;5.43;2.90;;;;;;;7.13;62.34;100556.63;5015977;28;20033;-77
2022/11/07 06:44:35;;;;;;;9.50;2.13;;;;;;;7.42;61.21;100565.28;5013272;28;20044;-75
2022/11/07 06:47:01;;;;;;;8.02;2.97;;;;;;;7.30;61.58;100577.75;5027035;28;20343;-74
2022/11/07 06:49:27;;;;;;;9.52;2.42;;;;;;;7.70;60.47;100563.50;5013003;28;20033;-80
2022/11/07 06:51:52;;;;;;;9.07;2.53;;;;;;;7.53;60.54;100576.19;5011427;28;20043;-76
2022/11/07 06:54:18;;;;;;;6.35;2.58;;;;;;;7.47;60.41;100579.00;5010219;28;20041;-77
2022/11/07 06:56:43;;;;;;;6.88;1.98;;;;;;;7.18;61.55;100578.16;5025815;28;20037;-78
2022/11/07 06:59:09;;;;;;;6.47;1.95;;;;;;;7.67;59.67;100589.63;5026393;28;20073;-75
2022/11/07 07:01:34;;;;;;;14.32;2.47;;;;;;;7.58;60.30;100592.53;5019442;28;20413;-75
2022/11/07 07:03:59;;;;;;;13.60;2.60;;;;;;;6.74;62.41;100590.69;5009046;28;20140;-71
2022/11/07 07:06:25;;;;;;;16.10;2.95;;;;;;;7.29;61.52;100601.22;5025119;28;20048;-70
2022/11/07 07:08:51;;;;;;;8.90;2.70;;;;;;;7.72;60.34;100598.13;5024932;28;20063;-75
2022/11/07 07:11:16;;;;;;;4.75;2.55;;;;;;;7.44;60.55;100592.06;5012309;28;20393;-75
2022/11/07 07:13:42;;;;;;;6.95;2.35;;;;;;;8.01;58.68;100598.94;5031017;28;20044;-81
2022/11/07 07:16:08;;;;;;;7.07;2.45;;;;;;;7.86;59.14;100600.28;5035889;28;20056;-83
2022/11/07 07:18:34;;;;;;;8.13;2.65;;;;;;;7.56;59.80;100602.13;5032402;28;20056;-71
2022/11/07 07:21:06;;;;;;;8.32;2.17;;;;;;;7.81;59.15;100601.34;5026876;28;20052;-73
2022/11/07 07:23:36;;;;;;;10.48;2.42;;;;;;;7.50;60.09;100592.72;5026463;28;20037;-76
2022/11/07 07:26:03;;;;;;;8.43;3.15;;;;;;;7.83;59.34;100610.81;5014475;28;20373;-73
2022/11/07 07:28:28;;;;;;;7.93;2.25;;;;;;;7.55;60.03;100608.22;5024475;28;20047;-75
2022/11/07 07:31:07;;;;;;;11.05;2.70;;;;;;;7.16;61.42;100610.28;5026675;28;20047;-75
2022/11/07 07:33:32;;;;;;;7.75;2.47;;;;;;;7.31;60.47;100623.66;5008265;28;20044;-72
2022/11/07 07:35:58;;;;;;;10.98;2.63;;;;;;;7.87;59.37;100621.94;5025973;28;20025;-74
2022/11/07 07:38:24;;;;;;;6.22;2.00;;;;;;;7.44;60.63;100628.47;5025558;28;20131;-73
2022/11/07 07:40:49;;;;;;;8.85;2.58;;;;;;;7.90;59.51;100632.28;5010422;28;20391;-74
2022/11/07 07:43:14;;;;;;;8.13;2.30;;;;;;;8.04;58.66;100624.84;5026854;28;20035;-73
2022/11/07 07:45:40;;;;;;;17.50;2.85;;;;;;;8.08;58.30;100625.59;5013085;28;20069;-72
2022/11/07 07:48:05;;;;;;;8.13;2.67;;;;;;;7.49;59.92;100626.63;5016438;28;20045;-73
2022/11/07 07:50:31;;;;;;;8.38;2.80;;;;;;;7.84;59.50;100628.09;5009055;28;20045;-73
2022/11/07 07:52:57;;;;;;;6.88;1.98;;;;;;;7.94;58.76;100626.91;5024097;28;20061;-72
2022/11/07 07:55:23;;;;;;;12.52;2.25;;;;;;;8.22;58.18;100625.13;5019565;28;20422;-72
2022/11/07 07:57:49;;;;;;;10.52;1.90;;;;;;;8.30;57.80;100633.53;5008912;28;20269;-72
2022/11/07 08:00:15;;;;;;;10.38;2.25;;;;;;;8.20;57.70;100629.53;5009269;28;20045;-74
2022/11/07 08:02:42;;;;;;;10.50;2.25;;;;;;;7.80;59.38;100641.25;5026332;28;20029;-74
2022/11/07 08:05:12;;;;;;;8.25;2.40;;;;;;;8.01;59.10;100645.78;5026179;28;20049;-72
2022/11/07 08:07:49;;;;;;;10.75;2.60;;;;;;;8.40;57.53;100640.13;5023839;28;20573;-72
2022/11/07 08:10:16;;;;;;;3.80;2.33;;;;;;;8.86;56.60;100635.06;5015204;28;20033;-68
2022/11/07 08:12:47;;;;;;;9.00;3.00;;;;;;;8.79;56.64;100639.66;5013698;28;20490;-72
2022/11/07 08:15:14;;;;;;;6.38;1.58;;;;;;;8.32;57.73;100653.41;5021441;28;20040;-72
2022/11/07 08:17:40;;;;;;;7.10;2.28;;;;;;;8.55;57.39;100650.00;5025292;28;20099;-75
2022/11/07 08:20:08;;;;;;;6.25;2.25;;;;;;;8.44;57.44;100654.75;5008167;28;20077;-74
2022/11/07 08:22:37;;;;;;;7.88;2.30;;;;;;;8.43;57.66;100647.84;5027004;28;20037;-72
2022/11/07 08:25:04;;;;;;;6.75;2.10;;;;;;;8.09;58.66;100649.00;5013357;28;20052;-73
2022/11/07 08:27:30;;;;;;;13.02;1.95;;;;;;;8.52;57.81;100642.31;5028075;28;20167;-73
2022/11/07 08:29:56;;;;;;;3.47;1.92;;;;;;;8.42;57.87;100651.34;5018534;28;20128;-73
2022/11/07 08:32:22;;;;;;;7.22;2.67;;;;;;;8.49;57.46;100650.22;5029638;28;20033;-74
2022/11/07 08:34:48;;;;;;;11.63;1.90;;;;;;;8.05;59.17;100660.41;5019976;28;20479;-76
2022/11/07 08:37:13;;;;;;;6.50;2.10;;;;;;;8.61;57.79;100661.13;5027251;28;20068;-73
2022/11/07 08:39:39;;;;;;;4.45;1.67;;;;;;;7.83;59.81;100659.41;5024438;28;20132;-73
2022/11/07 08:42:04;;;;;;;6.43;2.38;;;;;;;7.76;60.51;100665.66;5027645;28;20155;-73
2022/11/07 08:44:33;;;;;;;13.73;3.10;;;;;;;8.13;59.73;100666.19;5010170;28;20049;-73
2022/11/07 08:46:59;;;;;;;9.85;2.20;;;;;;;8.41;58.61;100665.28;5009906;28;20451;-76
2022/11/07 08:49:25;;;;;;;7.80;2.67;;;;;;;8.36;59.14;100667.19;5017956;28;20074;-74
2022/11/07 08:51:50;;;;;;;4.35;2.58;;;;;;;8.19;59.72;100666.91;5027034;28;20087;-73
2022/11/07 08:54:16;;;;;;;10.68;3.97;;;;;;;8.10;60.01;100668.91;5014336;28;20044;-74
2022/11/07 08:56:41;;;;;;;10.18;2.42;;;;;;;8.57;58.93;100663.81;5027265;28;20078;-72
2022/11/07 08:59:08;;;;;;;12.90;3.55;;;;;;;8.69;58.52;100664.31;5029248;28;20053;-74
2022/11/07 09:01:34;;;;;;;9.18;2.40;;;;;;;8.36;58.98;100672.41;5019418;28;20441;-74
2022/11/07 09:04:00;;;;;;;8.40;2.70;;;;;;;8.76;58.13;100671.03;5027948;28;20052;-74
2022/11/07 09:06:25;;;;;;;9.32;2.50;;;;;;;8.62;58.48;100663.66;5015351;28;20079;-75
2022/11/07 09:08:50;;;;;;;8.98;2.97;;;;;;;8.74;58.05;100668.50;5016921;28;20040;-74
2022/11/07 09:11:17;;;;;;;7.50;2.35;;;;;;;8.54;59.11;100679.56;5011959;28;20537;-74
2022/11/07 09:13:45;;;;;;;10.80;2.50;;;;;;;8.55;58.26;100670.84;5012178;28;20570;-76
2022/11/07 09:16:11;;;;;;;16.65;3.30;;;;;;;8.96;57.55;100679.00;5020141;28;20174;-74
2022/11/07 09:18:37;;;;;;;7.38;2.13;;;;;;;9.16;56.91;100670.44;5009761;28;20094;-74
2022/11/07 09:21:03;;;;;;;5.50;2.08;;;;;;;8.32;58.87;100682.06;5028322;28;20025;-74
2022/11/07 09:23:28;;;;;;;5.43;2.38;;;;;;;8.96;56.73;100686.81;5010410;28;20029;-74
2022/11/07 09:25:56;;;;;;;17.45;2.72;;;;;;;8.97;57.44;100685.91;5025947;28;20119;-75
2022/11/07 09:28:22;;;;;;;12.73;2.97;;;;;;;9.15;56.46;100683.53;5029174;28;20091;-75
2022/11/07 09:30:52;;;;;;;15.63;2.65;;;;;;;9.16;56.75;100695.66;5011765;28;20575;-76
2022/11/07 09:33:18;;;;;;;9.82;2.42;;;;;;;8.90;57.72;100697.47;5029238;28;20040;-75
2022/11/07 09:35:44;;;;;;;6.28;2.45;;;;;;;9.39;56.19;100695.66;5006980;28;20038;-74
2022/11/07 09:38:09;;;;;;;8.63;2.08;;;;;;;8.40;59.20;100697.41;5011551;28;20052;-74
2022/11/07 09:40:50;;;;;;;10.57;2.13;;;;;;;8.73;58.96;100699.81;5024512;28;20045;-74
2022/11/07 09:43:40;;;;;;;12.60;2.92;;;;;;;9.26;57.15;100697.03;5024752;28;20048;-75
2022/11/07 09:46:32;;;;;;;7.97;2.42;;;;;;;9.11;57.63;100697.59;5017238;28;20057;-75
2022/11/07 09:49:38;;;;;;;11.13;2.50;;;;;;;9.09;57.72;100705.44;5005715;28;20041;-74
2022/11/07 09:52:34;;;;;;;5.95;1.98;;;;;;;8.97;58.45;100708.50;4972719;28;20454;-74
2022/11/07 09:55:07;;;;;;;8.27;2.05;;;;;;;9.31;57.30;100710.72;5012890;28;20056;-74
2022/11/07 09:57:35;;;;;;;5.93;3.00;;;;;;;9.13;57.39;100703.59;5025359;28;20041;-74
2022/11/07 10:00:10;;;;;;;7.90;2.80;;;;;;;8.00;61.67;100719.53;5022101;28;20370;-74
2022/11/07 10:02:42;;;;;;;5.15;2.00;;;;;;;8.93;58.66;100725.16;5024925;28;20036;-74
2022/11/07 10:05:41;;;;;;;8.02;2.33;;;;;;;8.92;59.10;100726.94;5024658;28;20183;-74
2022/11/07 10:08:37;;;;;;;7.95;2.45;;;;;;;8.76;59.52;100715.31;4989825;28;20069;-71
2022/11/07 10:11:11;;;;;;;14.23;3.35;;;;;;;8.77;59.61;100720.50;4988181;28;20569;-74
2022/11/07 10:14:03;;;;;;;12.15;2.33;;;;;;;8.96;58.83;100720.72;5001180;28;20033;-72
2022/11/07 10:16:49;;;;;;;8.77;2.78;;;;;;;8.89;59.25;100727.00;5012872;28;20059;-74
2022/11/07 10:19:45;;;;;;;6.13;2.47;;;;;;;9.21;58.50;100727.63;5023480;28;20506;-73
2022/11/07 10:22:10;;;;;;;10.77;3.50;;;;;;;9.75;57.10;100723.84;5025024;28;20152;-74
2022/11/07 10:25:01;;;;;;;5.45;1.88;;;;;;;9.77;56.66;100729.88;5018784;28;20109;-73
2022/11/07 10:27:26;;;;;;;12.57;3.03;;;;;;;9.13;57.90;100733.13;5025422;28;20037;-73
2022/11/07 10:29:54;;;;;;;12.40;2.75;;;;;;;9.82;56.77;100731.47;5021766;28;20053;-73
2022/11/07 10:32:26;;;;;;;10.00;2.72;;;;;;;9.55;57.24;100740.25;5008181;28;20052;-73
2022/11/07 10:35:05;;;;;;;5.82;1.95;;;;;;;9.07;57.62;100745.53;5023789;28;20084;-73
2022/11/07 10:37:30;;;;;;;4.70;1.73;;;;;;;9.04;58.31;100738.66;5024775;28;20048;-74
2022/11/07 10:39:56;;;;;;;12.38;3.30;;;;;;;9.49;56.72;100735.28;5009825;28;20431;-74
2022/11/07 10:42:30;;;;;;;5.20;1.70;;;;;;;9.36;57.07;100740.09;5008033;28;20033;-74
2022/11/07 10:44:57;;;;;;;9.95;2.60;;;;;;;9.80;56.10;100749.81;5009283;28;20056;-75
2022/11/07 10:47:26;;;;;;;7.93;1.65;;;;;;;9.56;56.42;100743.72;5020003;28;20128;-74
2022/11/07 10:50:15;;;;;;;10.00;2.50;;;;;;;9.49;56.95;100735.28;5013634;28;20686;-75
2022/11/07 10:52:50;;;;;;;10.77;3.42;;;;;;;9.60;56.23;100735.72;5021179;28;20034;-73
2022/11/07 10:55:16;;;;;;;11.07;3.30;;;;;;;9.71;55.93;100734.47;5006280;28;20041;-73
2022/11/07 10:57:44;;;;;;;8.48;1.77;;;;;;;9.31;57.34;100733.34;5021424;28;20034;-73
2022/11/07 11:00:28;;;;;;;6.28;1.80;;;;;;;9.65;56.81;100740.75;5022862;28;20060;-74
2022/11/07 11:02:55;;;;;;;12.52;2.15;;;;;;;10.86;53.86;100727.22;5022390;28;20037;-73
2022/11/07 11:05:45;;;;;;;11.50;3.05;;;;;;;10.11;54.99;100733.78;5024976;28;20461;-73
2022/11/07 11:08:16;;;;;;;6.05;1.80;;;;;;;9.52;56.55;100735.19;5021494;28;20099;-74
2022/11/07 11:10:42;;;;;;;11.32;1.70;;;;;;;9.73;55.87;100737.88;5023239;28;20513;-74
2022/11/07 11:13:25;;;;;;;10.40;1.50;;;;;;;9.54;56.50;100748.16;5022422;28;20037;-74
2022/11/07 11:15:51;;;;;;;9.15;2.47;;;;;;;10.10;55.02;100741.66;5021942;28;20045;-74
2022/11/07 11:18:17;;;;;;;13.27;1.75;;;;;;;10.17;55.09;100748.38;5010284;28;20037;-73
2022/11/07 11:20:56;;;;;;;5.05;1.88;;;;;;;9.62;56.56;100756.53;5005302;28;20490;-72
2022/11/07 11:23:25;;;;;;;13.10;2.40;;;;;;;9.79;56.29;100724.59;5020815;28;20739;-74
2022/11/07 11:25:58;;;;;;;6.07;1.50;;;;;;;9.47;56.84;100757.97;5021583;28;20069;-73
2022/11/07 11:28:33;;;;;;;5.95;1.08;;;;;;;9.91;56.11;100747.63;5023991;28;20409;-74
2022/11/07 11:31:05;;;;;;;7.82;1.77;;;;;;;9.45;56.94;100751.94;5019406;28;20059;-73
2022/11/07 11:33:40;;;;;;;11.35;2.25;;;;;;;10.05;55.82;100760.13;5023116;28;20101;-74
2022/11/07 11:36:17;;;;;;;8.95;1.63;;;;;;;10.01;55.69;100742.88;5007546;28;20017;-74
2022/11/07 11:38:51;;;;;;;7.18;1.73;;;;;;;9.90;55.97;100755.50;5021359;28;20037;-74
2022/11/07 11:41:35;;;;;;;10.23;1.67;;;;;;;10.15;55.42;100751.03;5021909;28;20037;-75
2022/11/07 11:44:17;;;;;;;5.47;1.50;;;;;;;10.32;54.82;100750.31;5006374;28;20037;-74
2022/11/07 11:47:01;;;;;;;6.95;1.20;;;;;;;10.11;55.29;100754.66;5008795;28;20037;-74